Have a Safe July 4th! 

Flight Track Log - Related Links

Times and Time Zones

All times are in EDT time to prevent confusion due to time zone crossing. See the UAL481 flight status page for this flight to view local times or setup timezone preferences in your user account.

Time Position Orientation Groundspeed Altitude Reporting Facility
EDT Latitude Longitude Course Direction KTS MPH feet Rate Location/Type
Thu 06:20:54 PM 42.7672 -73.8061 324° Northwest 139 160 1,500  Level Boston Center
Thu 06:21:55 PM 42.8106 -73.8439 327° Northwest 210 242 3,000 2,170 Climbing Boston Center
Thu 06:23:00 PM 42.8029 -74.1659 284° West  Level FlightAware Approximate
Thu 06:23:15 PM 42.8781 -73.9417 313° West 282 325 6,600  Level Boston Center
Thu 06:24:00 PM 42.8254 -74.2897 284° West  Level FlightAware Approximate
Thu 06:24:15 PM 42.9294 -74.0139 314° West 282 325 9,900  Level Boston Center
Thu 06:25:00 PM 42.8468 -74.4140 283° West  Level FlightAware Approximate
Thu 06:25:15 PM 43.0011 -74.1036 318° Northwest 303 349 12,700  Level Boston Center
Thu 06:26:00 PM 42.8698 -74.5365 324° Northwest  Level FlightAware Approximate
Thu 06:26:15 PM 43.0644 -74.1822 318° Northwest 325 374 15,200  Level Boston Center
Thu 06:27:15 PM 43.1103 -74.3058 297° West 327 376 17,700 2,300 Climbing Boston Center
Thu 06:28:15 PM 43.1144 -74.4311 273° West 342 394 19,800 2,000 Climbing Boston Center
Thu 06:29:15 PM 43.1203 -74.5736 273° West 366 421 21,700 1,850 Climbing Boston Center
Thu 06:30:15 PM 43.1236 -74.7186 272° West 379 436 23,500 1,950 Climbing Boston Center
Thu 06:31:15 PM 43.1289 -74.8697 273° West 390 449 25,600 1,800 Climbing Boston Center
Thu 06:32:15 PM 43.1508 -75.0128 282° West 390 449 27,100 1,550 Climbing Boston Center
Thu 06:33:15 PM 43.1869 -75.1625 288° West 390 449 28,700 1,600 Climbing Boston Center
Thu 06:34:15 PM 43.2269 -75.3125 290° West 406 467 30,300 1,400 Climbing Boston Center
Thu 06:35:15 PM 43.2372 -75.4842 275° West 412 474 31,500 1,850 Climbing Boston Center
Thu 06:36:15 PM 43.2353 -75.6350 269° West 412 474 34,000 1,900 Climbing Boston Center
Thu 06:37:15 PM 43.2333 -75.7747 269° West 399 459 35,300 1,000 Climbing Boston Center
Thu 06:38:15 PM 43.2311 -75.9197 269° West 385 443 36,000 350 Climbing Boston Center
Thu 06:39:15 PM 43.2286 -76.0622 269° West 380 437 36,000 500 Level Boston Center
Thu 06:40:15 PM 43.2283 -76.2047 270° West 380 437 37,000 711 Climbing Boston Center
Thu 06:41:47 PM 43.2167 -76.4000 265° West 380 437 37,800 394 Climbing Toronto Center
Thu 06:42:32 PM 43.2203 -76.5175 272° West 372 428 37,900 114 Climbing Cleveland Center
Thu 06:43:32 PM 43.2192 -76.6628 269° West 383 441 38,000 50 Climbing Cleveland Center
Thu 06:44:32 PM 43.2158 -76.8142 268° West 388 447 38,000  Level Cleveland Center
Thu 06:45:31 PM 43.2122 -76.9625 268° West 393 452 38,000  Level Cleveland Center
Thu 06:46:31 PM 43.2069 -77.1281 268° West 393 452 38,000  Level Cleveland Center
Thu 06:47:32 PM 43.2050 -77.2792 269° West 398 458 38,000  Level Cleveland Center
Thu 06:48:32 PM 43.1989 -77.4333 267° West 404 465 38,000  Level Cleveland Center
Thu 06:49:32 PM 43.1944 -77.5844 268° West 404 465 38,000  Level Cleveland Center
Thu 06:50:32 PM 43.1900 -77.7328 268° West 404 465 38,000  Level Cleveland Center
Thu 06:51:32 PM 43.1853 -77.8839 268° West 404 465 38,000 -50 Level Cleveland Center
Thu 06:52:32 PM 43.1825 -78.0350 269° West 404 465 37,900  Descending Cleveland Center
Thu 06:53:32 PM 43.1772 -78.1833 267° West 404 465 38,000 50 Climbing Cleveland Center
Thu 06:54:31 PM 43.1722 -78.3400 268° West 404 465 38,000 50 Level Cleveland Center
Thu 06:55:32 PM 43.1667 -78.4911 267° West 404 465 38,100  Climbing Cleveland Center
Thu 06:56:32 PM 43.1608 -78.6422 267° West 404 465 38,000 -50 Descending Cleveland Center
Thu 06:57:32 PM 43.1550 -78.8017 267° West 404 465 38,000  Level Cleveland Center
Thu 06:58:32 PM 43.1489 -78.9528 267° West 404 465 38,000  Level Cleveland Center
Thu 06:58:47 PM 43.1333 -78.9667 213° Southwest 410 472 38,000  Level Toronto Center
Thu 06:59:47 PM 43.1333 -79.1333 270° West 410 472 38,000  Level Toronto Center
Thu 07:00:47 PM 43.1167 -79.2833 261° West 410 472 38,000  Level Toronto Center
Thu 07:01:47 PM 43.1167 -79.4500 270° West 420 483 38,000  Level Toronto Center
Thu 07:02:47 PM 43.1167 -79.5833 270° West 410 472 38,000  Level Toronto Center
Thu 07:03:47 PM 43.1000 -79.7667 263° West 420 483 38,000  Level Toronto Center
Thu 07:04:47 PM 43.1000 -79.9000 270° West 420 483 38,000  Level Toronto Center
Thu 07:05:47 PM 43.0833 -80.0833 263° West 420 483 38,000  Level Toronto Center
Thu 07:06:47 PM 43.0833 -80.2500 270° West 420 483 38,000  Level Toronto Center
Thu 07:07:47 PM 43.0667 -80.3833 260° West 420 483 38,000  Level Toronto Center
Thu 07:08:47 PM 43.0667 -80.5500 270° West 420 483 38,000  Level Toronto Center
Thu 07:09:47 PM 43.0500 -80.7000 261° West 410 472 38,000  Level Toronto Center
Thu 07:10:47 PM 43.0333 -80.8667 262° West 410 472 38,000  Level Toronto Center
Thu 07:11:47 PM 43.0333 -81.0167 270° West 420 483 38,000  Level Toronto Center
Thu 07:12:47 PM 43.0167 -81.1833 262° West 420 483 38,000  Level Toronto Center
Thu 07:13:47 PM 43.0167 -81.3500 270° West 420 483 38,000  Level Toronto Center
Thu 07:14:47 PM 43.0167 -81.5000 270° West 420 483 38,000  Level Toronto Center
Thu 07:15:47 PM 43.0167 -81.6667 270° West 420 483 38,000  Level Toronto Center
Thu 07:16:47 PM 43.0167 -81.8167 270° West 420 483 38,000  Level Toronto Center
Thu 07:17:47 PM 43.0000 -81.9833 262° West 420 483 38,000  Level Toronto Center
Thu 07:18:47 PM 43.0000 -82.1333 270° West 420 483 38,000  Level Toronto Center
Thu 07:19:47 PM 43.0000 -82.3000 270° West 430 495 38,000  Level Toronto Center
Thu 07:20:47 PM 43.0000 -82.4833 270° West 430 495 38,000 -310 Level Toronto Center
Thu 07:21:43 PM 43.0047 -82.6331 273° West 428 493 37,400 -828 Descending Cleveland Center
Thu 07:22:43 PM 42.9997 -82.7917 268° West 428 493 36,400 -1,000 Descending Cleveland Center
Thu 07:23:43 PM 42.9944 -82.9533 267° West 428 493 35,400 -1,000 Descending Cleveland Center
Thu 07:24:43 PM 42.9889 -83.1178 267° West 428 493 34,400 -1,000 Descending Cleveland Center
Thu 07:25:43 PM 42.9831 -83.2822 267° West 433 498 33,400 -1,000 Descending Cleveland Center
Thu 07:26:43 PM 42.9772 -83.4408 267° West 433 498 32,400 -700 Descending Cleveland Center
Thu 07:27:43 PM 42.9708 -83.6053 267° West 432 497 32,000 -200 Descending Cleveland Center
Thu 07:28:43 PM 42.9622 -83.7694 266° West 438 504 32,000  Level Cleveland Center
Thu 07:29:43 PM 42.9472 -83.9331 263° West 438 504 32,000  Level Cleveland Center
Thu 07:31:47 PM 42.9000 -84.2833 260° West 440 506 32,000  Level Toronto Center
Thu 07:33:01 PM 42.8961 -84.4606 268° West 443 510 32,000  Level Chicago Center
Thu 07:34:03 PM 42.8803 -84.6219 262° West 433 498 32,000  Level Chicago Center
Thu 07:35:05 PM 42.8639 -84.7825 262° West 428 493 32,000  Level Chicago Center
Thu 07:36:07 PM 42.8464 -84.9428 262° West 428 493 32,000  Level Chicago Center
Thu 07:37:09 PM 42.8261 -85.1369 262° West 431 496 32,000  Level Chicago Center
Thu 07:38:11 PM 42.8083 -85.2956 261° West 419 482 32,000 -581 Level Chicago Center
Thu 07:39:13 PM 42.7922 -85.4494 262° West 418 481 30,800 -1,584 Descending Chicago Center
Thu 07:40:16 PM 42.7669 -85.6050 258° West 420 483 28,700 -1,968 Descending Chicago Center
Thu 07:41:18 PM 42.7383 -85.7631 256° West 425 489 26,700 -1,935 Descending Chicago Center
Thu 07:42:20 PM 42.7086 -85.9225 256° West 429 494 24,700 -1,935 Descending Chicago Center
Thu 07:43:22 PM 42.6803 -86.0811 256° West 429 494 22,700 -1,984 Descending Chicago Center
Thu 07:44:24 PM 42.6533 -86.2289 256° West 407 468 20,600 -2,274 Descending Chicago Center
Thu 07:45:26 PM 42.6200 -86.4028 255° West 396 456 18,000 -2,081 Descending Chicago Center
Thu 07:46:28 PM 42.5933 -86.5436 256° West 386 444 16,300 -1,548 Descending Chicago Center
Thu 07:47:30 PM 42.5678 -86.6794 256° West 376 433 14,800 -1,452 Descending Chicago Center
Thu 07:48:32 PM 42.5372 -86.8142 253° West 374 430 13,300 -1,452 Descending Chicago Center
Thu 07:49:34 PM 42.5028 -86.9425 250° West 364 419 11,800 -1,392 Descending Chicago Center
Thu 07:50:37 PM 42.4667 -87.0681 249° West 358 412 10,400 -864 Descending Chicago Center
Thu 07:51:39 PM 42.4256 -87.2194 250° West 359 413 10,000 -194 Descending Chicago Center
Thu 07:52:41 PM 42.3906 -87.3436 249° West 354 407 10,000  Level Chicago Center
Thu 07:53:43 PM 42.3572 -87.4639 249° West 357 411 10,000  Level Chicago Center
Thu 07:54:45 PM 42.3053 -87.5756 238° Southwest 368 423 10,000 -339 Level Chicago Center
Thu 07:55:47 PM 42.2186 -87.6614 216° Southwest 322 371 9,300 -1,016 Descending Chicago Center
Thu 07:56:49 PM 42.1511 -87.7308 217° Southwest 308 354 7,900 -1,113 Descending Chicago Center
Thu 07:57:51 PM 42.1006 -87.8172 232° Southwest 303 349 7,000 -524 Descending Chicago Center
Thu 07:58:32 PM 42.0667 -87.8833 235° Southwest 285 328 7,000 -579 Level Chicago TRACON
Thu 08:03:02 PM 42.0314 -88.2378 262° West 191 220 4,000 -542 Descending Chicago Center
Thu 08:04:04 PM 41.9853 -88.2297 173° South 206 237 4,000 -48 Level Chicago Center
Thu 08:05:06 PM 41.9686 -88.1486 105° East 197 227 3,900 -472 Descending Chicago Center
Thu 08:05:33 PM 41.9667 -88.1167 95° East 194 223 3,300 -1,333 Descending Chicago TRACON

Login

Don't have an account? Register now (free) for customized features, flight alerts, and more!